Time;durP1;ratioP1;P1;durP2;ratioP2;P2;SDS_P1;SDS_P2;PMS_P1;PMS_P2;Temp;Humidity;BMP_temperature;BMP_pressure;BME280_temperature;BME280_humidity;BME280_pressure;Samples;Min_cycle;Max_cycle;Signal;HPM_P1;HPM_P2
2022/02/26 06:00:17;;;;;;;11.70;5.30;;;3.70;99.90;;;;;;6062811;23;20985;31
2022/02/26 06:02:44;;;;;;;11.55;5.55;;;3.70;99.90;;;;;;4955024;28;20181;-80
2022/02/26 06:05:11;;;;;;;15.82;6.07;;;3.70;99.90;;;;;;4949381;29;20067;-79
2022/02/26 06:07:38;;;;;;;12.70;5.50;;;3.70;99.90;;;;;;4954312;29;20110;-81
2022/02/26 06:10:06;;;;;;;13.00;5.43;;;3.80;99.90;;;;;;4965200;29;20136;-80
2022/02/26 06:12:34;;;;;;;12.70;5.50;;;3.70;99.90;;;;;;4963014;29;20476;-80
2022/02/26 06:15:01;;;;;;;13.65;5.60;;;3.80;99.90;;;;;;4958912;29;20054;-79
2022/02/26 06:17:29;;;;;;;14.18;5.80;;;3.80;99.90;;;;;;4949277;29;20130;-78
2022/02/26 06:19:56;;;;;;;11.88;6.03;;;3.90;99.90;;;;;;4951879;29;20044;-80
2022/02/26 06:22:24;;;;;;;13.35;5.57;;;3.90;99.90;;;;;;4961325;29;20043;-80
2022/02/26 06:24:51;;;;;;;10.60;5.07;;;3.90;99.90;;;;;;4959466;29;20051;-80
2022/02/26 06:27:18;;;;;;;13.38;5.30;;;3.90;99.90;;;;;;4955587;28;20050;-79
2022/02/26 06:29:45;;;;;;;14.80;5.68;;;3.90;99.90;;;;;;4947508;29;20075;-81
2022/02/26 06:32:12;;;;;;;14.15;5.28;;;3.90;99.90;;;;;;4950905;28;20043;-80
2022/02/26 06:34:40;;;;;;;11.32;5.13;;;3.90;99.90;;;;;;4959588;29;20051;-80
2022/02/26 06:37:08;;;;;;;11.57;5.15;;;3.90;99.90;;;;;;4955995;28;20503;-77
2022/02/26 06:39:35;;;;;;;13.45;5.40;;;4.00;99.90;;;;;;4955029;29;20054;-77
2022/02/26 06:42:02;;;;;;;12.10;5.35;;;4.00;99.90;;;;;;4960529;28;20051;-78
2022/02/26 06:44:29;;;;;;;12.48;5.32;;;4.00;99.90;;;;;;4959068;29;20386;-80
2022/02/26 06:46:56;;;;;;;10.93;4.85;;;4.00;99.90;;;;;;4952713;29;20050;-80
2022/02/26 06:49:23;;;;;;;14.45;5.20;;;4.00;99.90;;;;;;4944358;29;20055;-78
2022/02/26 06:51:51;;;;;;;14.23;5.10;;;4.10;99.90;;;;;;4942297;28;20135;-78
2022/02/26 06:54:18;;;;;;;14.35;5.95;;;4.10;99.90;;;;;;4937466;29;20056;-78
2022/02/26 06:56:45;;;;;;;11.20;4.88;;;4.10;99.90;;;;;;4935898;29;20052;-75
2022/02/26 06:59:13;;;;;;;12.77;5.40;;;4.10;99.90;;;;;;4937580;29;20043;-77
2022/02/26 07:01:40;;;;;;;15.32;5.68;;;4.20;99.90;;;;;;4949291;29;20051;-78
2022/02/26 07:04:08;;;;;;;13.23;5.35;;;4.20;99.90;;;;;;4947044;29;20055;-78
2022/02/26 07:06:35;;;;;;;11.25;5.47;;;4.20;99.90;;;;;;4953361;29;20044;-80
2022/02/26 07:09:05;;;;;;;15.52;5.65;;;4.20;99.90;;;;;;4946119;29;20108;-79
2022/02/26 07:11:32;;;;;;;11.77;5.20;;;4.20;99.90;;;;;;4942478;29;20040;-78
2022/02/26 07:13:59;;;;;;;12.15;5.38;;;4.20;99.90;;;;;;4955068;29;20079;-79
2022/02/26 07:16:26;;;;;;;15.05;5.50;;;4.20;99.90;;;;;;4945189;29;20047;-78
2022/02/26 07:18:53;;;;;;;12.77;5.10;;;4.30;99.90;;;;;;4944381;28;20508;-76
2022/02/26 07:21:20;;;;;;;13.63;5.65;;;4.30;99.90;;;;;;4952650;29;20193;-79
2022/02/26 07:23:47;;;;;;;11.57;4.90;;;4.30;99.90;;;;;;4945144;28;20054;-78
2022/02/26 07:26:15;;;;;;;11.73;5.13;;;4.30;99.90;;;;;;4949581;29;20043;-81
2022/02/26 07:28:42;;;;;;;14.35;5.90;;;4.30;99.90;;;;;;4955340;29;20107;-79
2022/02/26 07:31:09;;;;;;;15.55;5.38;;;4.40;99.90;;;;;;4949081;29;20054;-79
2022/02/26 07:33:36;;;;;;;15.70;5.82;;;4.40;99.90;;;;;;4967217;28;20046;-79
2022/02/26 07:36:04;;;;;;;13.18;5.75;;;4.40;99.90;;;;;;4966382;28;20048;-82
2022/02/26 07:38:31;;;;;;;15.73;5.63;;;4.50;99.90;;;;;;4953186;29;20049;-86
2022/02/26 07:40:58;;;;;;;12.57;5.65;;;4.50;99.90;;;;;;4953853;29;20146;-78
2022/02/26 07:43:26;;;;;;;14.00;5.70;;;4.50;99.90;;;;;;4941408;29;20043;-78
2022/02/26 07:45:53;;;;;;;12.95;5.65;;;4.50;99.90;;;;;;4947186;29;20051;-76
2022/02/26 07:48:21;;;;;;;11.48;5.43;;;4.50;99.90;;;;;;4947912;29;20043;-78
2022/02/26 07:50:48;;;;;;;13.45;5.47;;;4.50;99.90;;;;;;4936719;29;20046;-75
2022/02/26 07:53:15;;;;;;;14.80;6.00;;;4.60;99.90;;;;;;4936806;29;20047;-79
2022/02/26 07:55:42;;;;;;;14.15;5.70;;;4.70;99.90;;;;;;4948806;28;20142;-75
2022/02/26 07:58:09;;;;;;;14.30;5.93;;;4.70;99.90;;;;;;4947383;29;20043;-78
2022/02/26 08:00:38;;;;;;;11.30;5.30;;;4.70;99.90;;;;;;4937326;29;20044;-75
2022/02/26 08:03:05;;;;;;;13.88;5.90;;;4.80;99.90;;;;;;4937096;29;20055;-77
2022/02/26 08:05:33;;;;;;;14.82;6.63;;;4.80;99.90;;;;;;4946665;29;20050;-77
2022/02/26 08:08:00;;;;;;;16.33;6.70;;;4.70;99.90;;;;;;4936398;29;20478;-75
2022/02/26 08:10:28;;;;;;;15.80;6.57;;;4.80;99.90;;;;;;4944772;29;20054;-78
2022/02/26 08:12:57;;;;;;;15.07;6.05;;;4.80;99.90;;;;;;4942384;29;20076;-79
2022/02/26 08:15:30;;;;;;;12.00;5.72;;;4.90;99.90;;;;;;4936141;29;20052;-79
2022/02/26 08:17:59;;;;;;;18.05;7.75;;;4.90;99.90;;;;;;4944821;29;20051;-80
2022/02/26 08:20:26;;;;;;;18.98;8.38;;;4.90;99.90;;;;;;4951626;29;20488;-79
2022/02/26 08:22:54;;;;;;;19.15;8.90;;;4.90;99.90;;;;;;4943913;29;20052;-79
2022/02/26 08:25:22;;;;;;;21.20;10.48;;;4.90;99.90;;;;;;4947385;29;20043;-78
2022/02/26 08:27:49;;;;;;;22.27;9.48;;;5.00;99.90;;;;;;4944138;29;20083;-79
2022/02/26 08:30:22;;;;;;;17.40;8.13;;;5.10;99.90;;;;;;4936964;29;20062;-79
2022/02/26 08:32:50;;;;;;;14.40;6.25;;;5.10;99.90;;;;;;4944785;29;20054;-78
2022/02/26 08:35:18;;;;;;;12.52;5.97;;;5.20;99.90;;;;;;4946041;29;20174;-78
2022/02/26 08:37:46;;;;;;;12.32;6.18;;;5.20;99.90;;;;;;4942765;29;20053;-77
2022/02/26 08:40:15;;;;;;;12.85;6.28;;;5.20;99.90;;;;;;4941672;28;20048;-78
2022/02/26 08:42:43;;;;;;;13.15;5.95;;;5.20;99.90;;;;;;4939342;29;20055;-76
2022/02/26 08:45:11;;;;;;;16.92;6.95;;;5.20;99.90;;;;;;4942786;29;20048;-77
2022/02/26 08:47:38;;;;;;;11.80;5.88;;;5.30;99.90;;;;;;4935229;29;20056;-89
2022/02/26 08:50:09;;;;;;;13.02;6.00;;;5.30;99.90;;;;;;4945355;29;20142;-82
2022/02/26 08:52:37;;;;;;;12.55;6.07;;;5.30;99.90;;;;;;4963333;28;20411;-81
2022/02/26 08:55:06;;;;;;;13.50;6.18;;;5.30;99.90;;;;;;4972706;28;20054;-79
2022/02/26 08:57:33;;;;;;;19.15;6.80;;;5.30;99.90;;;;;;4937943;28;20051;-79
2022/02/26 09:00:00;;;;;;;14.63;6.85;;;5.40;99.90;;;;;;4937909;29;20054;-78
2022/02/26 09:02:27;;;;;;;18.92;6.95;;;5.40;99.90;;;;;;4933053;29;20143;-90
2022/02/26 09:04:54;;;;;;;14.15;6.35;;;5.50;99.90;;;;;;4935959;29;20079;-88
2022/02/26 09:07:21;;;;;;;17.10;6.57;;;5.50;99.90;;;;;;4936635;29;20047;-87
2022/02/26 09:09:51;;;;;;;15.20;6.15;;;5.60;99.90;;;;;;4936510;29;20438;-85
2022/02/26 09:12:18;;;;;;;11.35;6.18;;;5.70;99.90;;;;;;4935699;29;20079;-81
2022/02/26 09:14:45;;;;;;;12.60;5.80;;;5.70;99.90;;;;;;4920677;29;20054;-77
2022/02/26 09:17:13;;;;;;;12.25;6.38;;;5.80;99.90;;;;;;4945573;28;20059;-79
2022/02/26 09:19:40;;;;;;;18.92;6.25;;;5.90;99.90;;;;;;4937047;29;20058;-78
2022/02/26 09:22:07;;;;;;;12.23;5.85;;;5.90;99.60;;;;;;4942781;29;20134;-79
2022/02/26 09:24:34;;;;;;;13.07;5.70;;;6.00;99.00;;;;;;4937876;29;20057;-81
2022/02/26 09:27:04;;;;;;;12.32;5.80;;;6.00;99.30;;;;;;4943501;29;20060;-80
2022/02/26 09:29:31;;;;;;;14.20;6.60;;;6.00;99.20;;;;;;4941060;29;20058;-80
2022/02/26 09:31:58;;;;;;;13.07;5.88;;;6.00;98.70;;;;;;4944795;29;20115;-80
2022/02/26 09:34:26;;;;;;;9.25;4.63;;;6.00;98.20;;;;;;4938041;29;20048;-80
2022/02/26 09:36:53;;;;;;;13.63;5.57;;;6.10;98.30;;;;;;4949606;29;20051;-79
2022/02/26 09:39:21;;;;;;;11.20;4.57;;;6.00;97.90;;;;;;4944116;29;20116;-80
2022/02/26 09:41:50;;;;;;;10.68;5.30;;;6.00;97.70;;;;;;4944845;28;20070;-80
2022/02/26 09:44:20;;;;;;;12.52;6.25;;;6.00;97.70;;;;;;4946070;29;20061;-79
2022/02/26 09:46:48;;;;;;;12.68;5.72;;;6.00;97.70;;;;;;4948192;29;20052;-81
2022/02/26 09:49:15;;;;;;;12.27;4.82;;;6.10;97.20;;;;;;4951454;29;20046;-81
2022/02/26 09:51:45;;;;;;;9.02;4.05;;;6.10;96.70;;;;;;4947402;29;20052;-79
2022/02/26 09:54:13;;;;;;;11.30;4.05;;;6.00;96.30;;;;;;4943749;29;20052;-80
2022/02/26 09:56:40;;;;;;;11.85;3.78;;;6.00;96.00;;;;;;4936381;29;20069;-80
2022/02/26 09:59:07;;;;;;;9.95;3.60;;;6.00;95.50;;;;;;4945241;29;20055;-81
2022/02/26 10:01:35;;;;;;;9.88;3.10;;;6.00;95.00;;;;;;4972657;28;20496;-80
2022/02/26 10:04:11;;;;;;;10.32;3.20;;;6.00;94.00;;;;;;4972802;28;20558;-80
2022/02/26 10:06:38;;;;;;;7.05;2.70;;;6.00;93.70;;;;;;4974760;28;20058;-79
2022/02/26 10:09:15;;;;;;;7.82;3.08;;;6.00;93.40;;;;;;4974606;28;20503;-79
2022/02/26 10:11:43;;;;;;;7.38;2.83;;;6.10;93.20;;;;;;4974145;28;20051;-80
2022/02/26 10:14:13;;;;;;;8.40;2.65;;;6.10;92.80;;;;;;4974526;28;20476;-80
2022/02/26 10:16:48;;;;;;;5.65;1.98;;;6.10;92.20;;;;;;4974181;28;20054;-79
2022/02/26 10:19:26;;;;;;;9.07;2.53;;;6.30;91.80;;;;;;4974572;28;20056;-79
2022/02/26 10:21:56;;;;;;;11.85;3.15;;;6.30;91.40;;;;;;4974629;28;20051;-79
2022/02/26 10:24:23;;;;;;;10.88;3.30;;;6.40;91.30;;;;;;4961790;28;20087;-78
2022/02/26 10:26:52;;;;;;;8.32;2.92;;;6.40;91.40;;;;;;4955006;29;20146;-78
2022/02/26 10:29:22;;;;;;;7.85;3.00;;;6.50;91.20;;;;;;4950748;29;20126;-80
2022/02/26 10:31:52;;;;;;;8.98;3.38;;;6.50;90.70;;;;;;4951482;29;20051;-79
2022/02/26 10:34:32;;;;;;;8.27;2.85;;;6.50;90.10;;;;;;4954786;29;20066;-78
2022/02/26 10:37:06;;;;;;;8.05;2.40;;;6.60;89.30;;;;;;4944035;28;20063;-79
2022/02/26 10:39:36;;;;;;;6.90;2.20;;;6.60;85.80;;;;;;4974098;28;20050;-82
2022/02/26 10:42:06;;;;;;;7.07;1.90;;;6.60;85.90;;;;;;4964126;28;20138;-78
2022/02/26 10:44:33;;;;;;;5.70;1.70;;;6.60;84.20;;;;;;4954396;29;20370;-80
2022/02/26 10:47:11;;;;;;;5.57;1.63;;;6.50;82.30;;;;;;4954239;29;20061;-79
2022/02/26 10:49:43;;;;;;;7.47;2.10;;;6.50;80.90;;;;;;4952338;29;20512;-78
2022/02/26 10:52:13;;;;;;;7.05;1.90;;;6.50;78.10;;;;;;4944332;29;20091;-80
2022/02/26 10:54:41;;;;;;;8.35;1.52;;;6.50;77.60;;;;;;4945766;29;20055;-79
2022/02/26 10:57:11;;;;;;;6.63;1.83;;;6.50;77.00;;;;;;4942537;29;20059;-80
2022/02/26 10:59:41;;;;;;;7.03;1.80;;;6.60;76.10;;;;;;4939541;29;20058;-77
2022/02/26 11:02:15;;;;;;;7.90;2.28;;;6.60;75.80;;;;;;4946855;29;20061;-79
2022/02/26 11:04:42;;;;;;;7.40;1.90;;;6.60;74.70;;;;;;4948141;29;20059;-78
2022/02/26 11:07:10;;;;;;;7.15;1.90;;;6.70;74.10;;;;;;4937668;29;20048;-79
2022/02/26 11:09:41;;;;;;;4.78;1.60;;;6.70;71.50;;;;;;4942649;29;20050;-78
2022/02/26 11:12:13;;;;;;;6.03;1.50;;;6.70;70.60;;;;;;4945074;29;20051;-78
2022/02/26 11:14:46;;;;;;;6.80;1.50;;;6.70;68.80;;;;;;4950589;29;20055;-77
2022/02/26 11:17:15;;;;;;;5.93;1.50;;;6.80;68.10;;;;;;4949768;29;20537;-75
2022/02/26 11:19:46;;;;;;;6.35;1.67;;;6.90;68.30;;;;;;4948263;29;20051;-76
2022/02/26 11:22:15;;;;;;;7.85;1.60;;;7.00;67.90;;;;;;4937532;29;20067;-79
2022/02/26 11:24:43;;;;;;;7.00;1.63;;;7.10;68.10;;;;;;4951639;29;20057;-76
2022/02/26 11:27:10;;;;;;;7.28;2.13;;;7.10;67.90;;;;;;4940109;29;20511;-78
2022/02/26 11:29:37;;;;;;;10.68;3.13;;;7.10;67.10;;;;;;4951606;29;20043;-77
2022/02/26 11:32:08;;;;;;;8.45;2.58;;;7.20;67.30;;;;;;4942419;29;20087;-79
2022/02/26 11:34:38;;;;;;;5.85;2.08;;;7.20;66.90;;;;;;4949016;29;20047;-77
2022/02/26 11:37:08;;;;;;;5.47;1.40;;;7.30;65.60;;;;;;4945225;29;20055;-77
2022/02/26 11:39:39;;;;;;;6.78;1.77;;;7.20;65.50;;;;;;4939291;29;20515;-80
2022/02/26 11:42:28;;;;;;;4.75;1.17;;;7.30;65.50;;;;;;4945103;29;20134;-77
2022/02/26 11:45:02;;;;;;;9.07;1.73;;;7.30;64.40;;;;;;4943903;29;20498;-78
2022/02/26 11:47:40;;;;;;;6.57;2.00;;;7.30;64.10;;;;;;4936271;29;20051;-78
2022/02/26 11:50:14;;;;;;;8.13;1.80;;;7.30;64.10;;;;;;4943858;29;20047;-79
2022/02/26 11:52:49;;;;;;;8.65;2.00;;;7.30;64.00;;;;;;4937396;29;20054;-80
2022/02/26 11:55:47;;;;;;;;;;;7.30;64.20;;;;;;4951697;29;20062;-82
2022/02/26 11:58:18;;;;;;;5.85;1.30;;;7.30;64.50;;;;;;4938319;29;20034;-81
2022/02/26 12:00:48;;;;;;;8.45;1.80;;;7.40;63.20;;;;;;4938658;29;20054;-79
2022/02/26 12:03:26;;;;;;;5.88;1.48;;;7.40;63.20;;;;;;4949702;29;20147;-79
2022/02/26 12:06:31;;;;;;;7.68;1.50;;;7.40;63.30;;;;;;4941646;29;20540;-79
2022/02/26 12:09:02;;;;;;;6.35;1.50;;;7.50;63.20;;;;;;4898103;29;20052;-81
2022/02/26 12:11:41;;;;;;;5.47;1.50;;;7.60;62.60;;;;;;4910159;29;20040;-80
2022/02/26 12:14:19;;;;;;;5.40;1.20;;;7.60;62.90;;;;;;4926141;29;20062;-80
2022/02/26 12:16:50;;;;;;;6.05;1.58;;;7.70;62.40;;;;;;4949672;29;20134;-81
2022/02/26 12:19:27;;;;;;;10.27;3.80;;;7.80;61.20;;;;;;4946718;29;20058;-80
2022/02/26 12:21:59;;;;;;;11.52;4.30;;;7.90;61.70;;;;;;4947294;29;20115;-80
2022/02/26 12:24:29;;;;;;;8.18;2.33;;;8.10;62.30;;;;;;4937193;29;20121;-80
2022/02/26 12:27:08;;;;;;;4.97;1.60;;;8.30;60.80;;;;;;4941657;29;20881;-81
2022/02/26 12:29:54;;;;;;;8.55;2.05;;;8.40;60.40;;;;;;4950724;29;20051;-84
2022/02/26 12:32:25;;;;;;;7.18;1.77;;;8.50;59.80;;;;;;4948696;29;20043;-82
2022/02/26 12:35:03;;;;;;;7.03;1.60;;;8.60;58.90;;;;;;4943231;29;20142;-89
2022/02/26 12:37:33;;;;;;;5.65;1.42;;;8.70;59.00;;;;;;4957365;29;20051;-81
2022/02/26 12:40:04;;;;;;;4.82;1.40;;;8.70;58.40;;;;;;4949653;29;20056;-84
2022/02/26 12:42:34;;;;;;;6.70;1.52;;;8.60;57.60;;;;;;4945373;29;20382;-89
2022/02/26 12:45:05;;;;;;;6.82;1.42;;;8.60;57.00;;;;;;4957239;29;20111;-86
2022/02/26 12:47:34;;;;;;;5.72;1.58;;;8.70;57.30;;;;;;4964135;28;20112;-84
2022/02/26 12:50:02;;;;;;;5.38;1.35;;;8.70;57.40;;;;;;4958112;29;20044;-87
2022/02/26 12:52:34;;;;;;;5.95;1.63;;;8.70;57.60;;;;;;4958782;29;20094;-87
2022/02/26 12:55:08;;;;;;;6.40;1.38;;;8.70;57.80;;;;;;4970855;28;20075;-86
2022/02/26 12:57:36;;;;;;;5.32;1.20;;;8.80;57.60;;;;;;4958621;29;20604;-89
2022/02/26 13:00:07;;;;;;;5.82;1.40;;;8.90;57.60;;;;;;4955002;29;20086;-87
2022/02/26 13:02:40;;;;;;;5.78;1.30;;;9.10;58.40;;;;;;4960408;29;20051;-86
2022/02/26 13:05:09;;;;;;;5.78;1.42;;;9.30;57.50;;;;;;4952998;29;20477;-84
2022/02/26 13:07:37;;;;;;;8.68;1.52;;;9.40;57.30;;;;;;4956195;29;20043;-83
2022/02/26 13:10:09;;;;;;;6.30;1.58;;;9.50;56.50;;;;;;4952136;28;20417;-83
2022/02/26 13:12:39;;;;;;;7.10;1.55;;;9.60;56.30;;;;;;4940172;29;20058;-86
2022/02/26 13:15:08;;;;;;;8.27;1.50;;;9.80;56.80;;;;;;4951782;29;20508;-87
2022/02/26 13:17:39;;;;;;;7.82;1.40;;;10.00;56.50;;;;;;4921640;29;20055;-87
2022/02/26 13:20:22;;;;;;;6.20;1.60;;;10.10;56.20;;;;;;4942486;29;20082;-90
2022/02/26 13:22:55;;;;;;;7.95;2.25;;;10.30;56.10;;;;;;4949217;29;20051;-88
2022/02/26 13:25:23;;;;;;;6.45;1.67;;;10.60;55.20;;;;;;4931538;29;20047;-87
2022/02/26 13:27:52;;;;;;;6.85;1.80;;;10.80;54.70;;;;;;4944559;29;20142;-84
2022/02/26 13:30:21;;;;;;;7.40;1.63;;;11.00;52.30;;;;;;4959977;29;20058;-85
2022/02/26 13:32:51;;;;;;;6.45;1.67;;;11.10;53.00;;;;;;4953765;29;20055;-80
2022/02/26 13:35:21;;;;;;;7.30;1.90;;;11.30;52.10;;;;;;4941466;29;20044;-81
2022/02/26 13:37:49;;;;;;;8.07;2.10;;;11.40;52.70;;;;;;4940170;29;20055;-83
2022/02/26 13:40:18;;;;;;;5.70;1.70;;;11.60;52.80;;;;;;4957954;29;20047;-86
2022/02/26 13:42:54;;;;;;;4.78;1.33;;;11.60;51.10;;;;;;4924820;29;20052;-85
2022/02/26 13:45:24;;;;;;;5.68;1.80;;;11.60;50.10;;;;;;4949039;29;20050;-83
2022/02/26 13:47:54;;;;;;;7.30;1.73;;;11.60;50.80;;;;;;4922742;29;20047;-82
2022/02/26 13:50:23;;;;;;;8.40;1.80;;;11.80;51.00;;;;;;4937381;29;20063;-81
2022/02/26 13:52:52;;;;;;;8.88;2.60;;;12.10;50.70;;;;;;4938266;29;20062;-82
2022/02/26 13:55:23;;;;;;;7.47;2.92;;;12.40;50.80;;;;;;4927815;29;20538;-86
2022/02/26 13:57:51;;;;;;;12.85;3.35;;;12.80;49.50;;;;;;4938732;29;20416;-82
2022/02/26 14:00:21;;;;;;;6.90;1.60;;;13.30;48.80;;;;;;4938315;29;20049;-80
2022/02/26 14:02:59;;;;;;;5.70;1.77;;;13.80;48.80;;;;;;4941443;29;20488;-79
2022/02/26 14:05:28;;;;;;;7.28;1.90;;;;;;;;;;4953788;29;20051;-88
2022/02/26 14:07:57;;;;;;;6.35;2.00;;;;;;;;;;4951290;29;20056;-86
2022/02/26 14:10:26;;;;;;;7.35;1.98;;;17.40;41.90;;;;;;4956408;29;20142;-90
2022/02/26 14:12:56;;;;;;;5.55;1.63;;;19.50;39.90;;;;;;4966289;28;20099;-84
2022/02/26 14:15:25;;;;;;;6.95;1.77;;;19.60;37.20;;;;;;4971356;28;20051;-84
2022/02/26 14:17:55;;;;;;;7.53;2.10;;;19.10;36.90;;;;;;4964824;28;20135;-86
2022/02/26 14:20:27;;;;;;;5.55;1.63;;;18.50;37.70;;;;;;4959328;29;20413;-88
2022/02/26 14:23:01;;;;;;;7.55;2.42;;;17.70;38.60;;;;;;4960071;29;20055;-86
2022/02/26 14:25:31;;;;;;;6.32;1.48;;;17.70;40.10;;;;;;4941982;29;20047;-86
2022/02/26 14:27:58;;;;;;;5.93;1.92;;;18.20;39.60;;;;;;4957972;28;20055;-87
2022/02/26 14:30:26;;;;;;;8.77;1.50;;;17.40;38.90;;;;;;4958097;29;20043;-87
2022/02/26 14:32:56;;;;;;;7.53;2.00;;;16.60;39.50;;;;;;4955141;29;20066;-87
2022/02/26 14:35:26;;;;;;;5.57;1.60;;;15.90;40.60;;;;;;4956594;29;20051;-86
2022/02/26 14:37:54;;;;;;;5.32;1.70;;;15.30;47.70;;;;;;4946043;29;20143;-79
2022/02/26 14:40:24;;;;;;;6.68;1.80;;;14.60;42.10;;;;;;4939928;29;20062;-76
2022/02/26 14:42:54;;;;;;;6.13;1.85;;;;;;;;;;4951176;28;20095;-76
2022/02/26 14:45:22;;;;;;;6.85;2.00;;;;;;;;;;4951455;28;20412;-78
2022/02/26 14:47:52;;;;;;;7.78;2.13;;;21.00;37.60;;;;;;4965538;28;20556;-80
2022/02/26 14:50:20;;;;;;;6.00;1.73;;;23.30;35.40;;;;;;4944117;29;20501;-80
2022/02/26 14:52:48;;;;;;;6.97;2.85;;;25.40;32.90;;;;;;4937988;29;20058;-80
2022/02/26 14:55:18;;;;;;;6.65;1.67;;;27.00;31.40;;;;;;4951277;29;20150;-78
2022/02/26 14:57:48;;;;;;;6.18;2.00;;;28.20;29.80;;;;;;4938836;29;20059;-81
2022/02/26 15:00:20;;;;;;;5.90;2.05;;;28.90;29.00;;;;;;4947200;29;20048;-79
2022/02/26 15:02:47;;;;;;;6.07;2.08;;;29.80;28.80;;;;;;4941101;28;20572;-80
2022/02/26 15:05:15;;;;;;;4.38;1.90;;;30.20;28.50;;;;;;4941537;29;20052;-79
2022/02/26 15:07:43;;;;;;;9.40;4.43;;;30.50;27.60;;;;;;4938419;29;20176;-78
2022/02/26 15:10:12;;;;;;;5.43;1.98;;;30.70;27.50;;;;;;4942403;29;20134;-80
2022/02/26 15:12:40;;;;;;;7.18;1.70;;;30.90;27.20;;;;;;4934726;29;20139;-79
2022/02/26 15:15:09;;;;;;;6.30;2.05;;;31.00;26.90;;;;;;4938353;29;20047;-79
2022/02/26 15:17:37;;;;;;;5.10;1.45;;;30.70;26.80;;;;;;4934853;29;20075;-78
2022/02/26 15:20:07;;;;;;;5.40;1.40;;;30.70;27.10;;;;;;4953121;29;20053;-76
2022/02/26 15:22:34;;;;;;;5.25;1.40;;;30.70;26.70;;;;;;4943112;29;20442;-78
2022/02/26 15:25:01;;;;;;;4.93;1.52;;;30.50;26.70;;;;;;4934548;29;20489;-79
2022/02/26 15:27:29;;;;;;;5.05;1.42;;;30.50;26.60;;;;;;4943967;29;20050;-79
2022/02/26 15:29:56;;;;;;;6.70;1.52;;;29.50;26.00;;;;;;4940218;29;20477;-79
2022/02/26 15:32:23;;;;;;;4.82;1.38;;;29.10;26.50;;;;;;4937364;29;20408;-79
2022/02/26 15:34:52;;;;;;;4.88;1.48;;;27.20;26.60;;;;;;4939788;29;20053;-76
2022/02/26 15:37:19;;;;;;;5.30;1.60;;;24.70;27.30;;;;;;4934490;29;20060;-79
2022/02/26 15:39:46;;;;;;;6.03;1.48;;;22.80;28.60;;;;;;4937531;28;20436;-80
2022/02/26 15:42:13;;;;;;;4.50;1.40;;;21.20;29.70;;;;;;4941510;29;20058;-78
2022/02/26 15:44:40;;;;;;;6.20;1.45;;;19.80;30.50;;;;;;4953370;29;20416;-77
2022/02/26 15:47:08;;;;;;;5.53;1.50;;;18.60;32.10;;;;;;4952355;29;20047;-77
2022/02/26 15:49:35;;;;;;;4.97;1.75;;;17.50;33.40;;;;;;4950221;29;20039;-79
2022/02/26 15:52:05;;;;;;;5.85;1.33;;;16.50;34.50;;;;;;4935903;29;20047;-78
2022/02/26 15:54:32;;;;;;;6.10;1.50;;;15.60;36.20;;;;;;4941750;29;20074;-82
2022/02/26 15:56:59;;;;;;;7.70;1.73;;;14.80;36.70;;;;;;4947614;29;20142;-79
2022/02/26 15:59:27;;;;;;;5.28;1.58;;;14.10;38.50;;;;;;4949820;29;20485;-79
2022/02/26 16:01:55;;;;;;;5.68;1.80;;;13.50;38.80;;;;;;4941469;28;20054;-77
2022/02/26 16:04:22;;;;;;;7.03;1.40;;;12.90;39.50;;;;;;4950780;29;20493;-78
2022/02/26 16:06:49;;;;;;;5.50;1.77;;;11.90;40.20;;;;;;4942937;29;20077;-80
2022/02/26 16:09:18;;;;;;;6.43;1.40;;;12.20;41.10;;;;;;4948490;29;20058;-78
2022/02/26 16:11:45;;;;;;;6.55;1.70;;;11.90;41.70;;;;;;4926604;29;20047;-80
2022/02/26 16:14:12;;;;;;;4.40;1.40;;;11.60;42.30;;;;;;4947800;28;20051;-80
2022/02/26 16:16:39;;;;;;;6.30;1.48;;;11.40;42.80;;;;;;4940956;29;20399;-79
2022/02/26 16:19:06;;;;;;;4.40;1.45;;;11.20;43.30;;;;;;4938037;29;20051;-77
2022/02/26 16:21:33;;;;;;;5.82;1.60;;;10.80;43.40;;;;;;4951347;29;20134;-77
2022/02/26 16:24:01;;;;;;;5.13;1.33;;;10.60;43.80;;;;;;4952134;29;20134;-77
2022/02/26 16:26:29;;;;;;;4.88;1.30;;;10.40;44.60;;;;;;4940261;29;20139;-78
2022/02/26 16:28:56;;;;;;;5.38;1.55;;;10.20;45.00;;;;;;4934045;29;20052;-78
2022/02/26 16:31:23;;;;;;;5.63;1.20;;;10.10;45.30;;;;;;4933716;29;20062;-78
2022/02/26 16:33:50;;;;;;;10.95;2.03;;;9.90;45.40;;;;;;4936279;29;20378;-78
2022/02/26 16:36:18;;;;;;;8.75;3.30;;;9.80;45.80;;;;;;4941545;29;21509;-80
2022/02/26 16:38:46;;;;;;;9.77;4.03;;;9.80;46.20;;;;;;4932807;29;20501;-80
2022/02/26 16:41:13;;;;;;;8.20;3.33;;;9.90;46.80;;;;;;4948369;29;20055;-80
2022/02/26 16:43:42;;;;;;;6.65;2.30;;;10.10;46.90;;;;;;4949246;29;20066;-78
2022/02/26 16:46:10;;;;;;;6.90;1.65;;;10.20;46.70;;;;;;4944852;29;20566;-80
2022/02/26 16:48:37;;;;;;;5.97;1.30;;;10.50;46.40;;;;;;4943806;29;20143;-76
2022/02/26 16:51:04;;;;;;;6.45;1.70;;;10.50;46.20;;;;;;4950714;28;20053;-77
2022/02/26 16:53:32;;;;;;;5.30;1.58;;;10.20;46.10;;;;;;4936137;29;20051;-79
2022/02/26 16:55:59;;;;;;;5.47;1.25;;;9.90;46.20;;;;;;4946504;29;20062;-78
2022/02/26 16:58:26;;;;;;;4.82;1.50;;;9.70;46.90;;;;;;4940059;29;20058;-79
2022/02/26 17:00:54;;;;;;;4.85;1.30;;;9.50;47.50;;;;;;4940485;29;20559;-78
2022/02/26 17:03:21;;;;;;;4.82;1.42;;;9.30;47.80;;;;;;4942131;28;20501;-76
2022/02/26 17:05:48;;;;;;;4.90;1.30;;;9.20;48.20;;;;;;4947053;29;20062;-77
2022/02/26 17:08:15;;;;;;;6.10;1.10;;;9.10;49.20;;;;;;4916720;29;20059;-78
2022/02/26 17:10:43;;;;;;;5.30;1.60;;;8.90;48.80;;;;;;4937829;29;20472;-76
2022/02/26 17:13:10;;;;;;;3.65;1.08;;;8.80;49.20;;;;;;4933466;29;20058;-79
2022/02/26 17:15:42;;;;;;;6.13;1.65;;;8.70;49.60;;;;;;4933120;29;20078;-79
2022/02/26 17:18:11;;;;;;;5.15;1.50;;;8.50;49.50;;;;;;4940807;29;20112;-77
2022/02/26 17:20:38;;;;;;;4.85;1.30;;;8.40;49.80;;;;;;4936368;29;20143;-76
2022/02/26 17:23:06;;;;;;;6.80;1.73;;;8.20;49.90;;;;;;4932533;29;20094;-79
2022/02/26 17:25:33;;;;;;;5.68;1.38;;;8.10;50.30;;;;;;4933344;29;20405;-77
2022/02/26 17:28:00;;;;;;;5.38;1.30;;;7.90;50.00;;;;;;4945729;29;20050;-78
2022/02/26 17:30:28;;;;;;;5.57;1.30;;;7.90;50.00;;;;;;4934408;29;20047;-80
2022/02/26 17:32:55;;;;;;;5.38;1.20;;;7.70;49.70;;;;;;4932647;29;20158;-78
2022/02/26 17:35:26;;;;;;;4.60;1.27;;;7.60;49.70;;;;;;4939456;29;20491;-78
2022/02/26 17:37:53;;;;;;;5.63;1.20;;;7.50;49.50;;;;;;4934372;29;20060;-76
2022/02/26 17:40:20;;;;;;;3.58;1.00;;;7.50;49.60;;;;;;4934480;28;20591;-76
2022/02/26 17:42:47;;;;;;;3.38;1.00;;;7.40;49.70;;;;;;4943569;29;20142;-76
2022/02/26 17:45:15;;;;;;;4.45;1.00;;;7.40;49.80;;;;;;4942037;29;20051;-78
2022/02/26 17:47:42;;;;;;;5.25;1.65;;;7.40;49.90;;;;;;4936007;29;20564;-78
2022/02/26 17:50:12;;;;;;;5.53;1.30;;;7.30;50.00;;;;;;4941704;29;20055;-77
2022/02/26 17:52:41;;;;;;;3.60;1.17;;;7.30;50.30;;;;;;4947111;29;20504;-79
2022/02/26 17:55:10;;;;;;;3.92;0.90;;;7.30;50.30;;;;;;4943749;29;20142;-79
2022/02/26 17:57:38;;;;;;;3.38;1.38;;;7.30;50.30;;;;;;4943261;29;20062;-80
2022/02/26 18:00:08;;;;;;;6.13;1.40;;;7.30;50.60;;;;;;4943652;29;20048;-77
2022/02/26 18:02:35;;;;;;;4.53;1.00;;;7.30;51.00;;;;;;4933488;29;20087;-79
2022/02/26 18:05:02;;;;;;;5.50;1.15;;;7.30;50.90;;;;;;4949155;29;20051;-79
2022/02/26 18:07:29;;;;;;;5.45;1.10;;;7.30;50.90;;;;;;4945127;29;20493;-77
2022/02/26 18:09:58;;;;;;;4.03;0.98;;;7.20;51.10;;;;;;4948754;29;20051;-79
2022/02/26 18:12:25;;;;;;;4.15;0.98;;;7.20;51.20;;;;;;4943618;29;20058;-78
2022/02/26 18:14:52;;;;;;;4.38;1.08;;;7.10;51.30;;;;;;4942356;29;20047;-78
2022/02/26 18:17:19;;;;;;;3.67;1.13;;;7.10;51.40;;;;;;4941890;29;20052;-79
2022/02/26 18:19:46;;;;;;;4.22;1.20;;;7.10;51.40;;;;;;4944170;29;20409;-80
2022/02/26 18:22:13;;;;;;;2.63;0.95;;;7.00;51.60;;;;;;4947856;29;20048;-78
2022/02/26 18:24:40;;;;;;;3.40;0.90;;;7.00;51.90;;;;;;4951451;29;20557;-78
2022/02/26 18:27:09;;;;;;;4.78;1.25;;;7.00;51.90;;;;;;4934956;29;20058;-78
2022/02/26 18:29:36;;;;;;;3.88;1.00;;;7.00;52.00;;;;;;4945744;29;20047;-78
2022/02/26 18:32:04;;;;;;;4.57;1.10;;;7.00;52.20;;;;;;4952738;29;20062;-78
2022/02/26 18:34:32;;;;;;;4.68;1.23;;;6.90;52.30;;;;;;4948595;29;20050;-76
2022/02/26 18:37:00;;;;;;;5.22;1.10;;;6.90;52.10;;;;;;4946559;29;20051;-77
2022/02/26 18:39:28;;;;;;;4.40;1.13;;;6.90;52.30;;;;;;4953292;29;20055;-78
2022/02/26 18:41:55;;;;;;;4.35;1.00;;;6.90;52.30;;;;;;4941974;29;20054;-80
2022/02/26 18:44:25;;;;;;;5.82;1.10;;;6.90;52.20;;;;;;4943421;29;20048;-78
2022/02/26 18:46:53;;;;;;;4.22;1.30;;;6.80;52.30;;;;;;4952695;29;20043;-75
2022/02/26 18:49:20;;;;;;;4.05;1.00;;;6.80;52.70;;;;;;4946338;29;20138;-76
2022/02/26 18:51:47;;;;;;;3.55;1.00;;;6.80;52.10;;;;;;4944913;29;20043;-78
2022/02/26 18:54:15;;;;;;;3.38;1.15;;;6.80;52.30;;;;;;4948872;29;20054;-76
2022/02/26 18:56:43;;;;;;;5.88;1.38;;;6.80;52.70;;;;;;4942510;29;20051;-79
2022/02/26 18:59:10;;;;;;;4.80;1.40;;;6.80;53.30;;;;;;4947453;29;20410;-78
2022/02/26 19:01:39;;;;;;;5.13;1.40;;;6.70;53.00;;;;;;4945742;29;20061;-80